createdAt,value
2018-09-01T00:00:23.381Z,0.00
2018-09-01T00:01:23.370Z,0.00
2018-09-01T00:02:23.358Z,0.00
2018-09-01T00:03:23.347Z,0.00
2018-09-01T00:04:23.336Z,0.00
2018-09-01T00:05:23.391Z,0.00
2018-09-01T00:06:23.317Z,0.00
2018-09-01T00:07:23.344Z,0.00
2018-09-01T00:08:23.292Z,0.00
2018-09-01T00:09:23.286Z,0.00
2018-09-01T00:10:23.340Z,0.00
2018-09-01T00:11:23.320Z,0.00
2018-09-01T00:12:23.248Z,0.00
2018-09-01T00:13:23.238Z,0.00
2018-09-01T00:14:23.228Z,0.00
2018-09-01T00:15:23.286Z,0.00
2018-09-01T00:16:23.211Z,0.00
2018-09-01T00:17:23.198Z,0.00
2018-09-01T00:18:23.198Z,0.00
2018-09-01T00:19:23.178Z,0.00
2018-09-01T00:20:23.716Z,0.00
2018-09-01T00:21:23.157Z,0.00
2018-09-01T00:22:31.271Z,0.00
2018-09-01T00:23:31.280Z,0.00
2018-09-01T00:24:31.295Z,0.00
2018-09-01T00:25:31.370Z,0.00
2018-09-01T00:26:31.240Z,0.00
2018-09-01T00:27:23.121Z,0.00
2018-09-01T00:28:23.086Z,0.00
2018-09-01T00:29:23.071Z,0.00
2018-09-01T00:30:31.361Z,0.00
2018-09-01T00:31:31.635Z,0.00
2018-09-01T00:32:31.137Z,0.00
2018-09-01T00:33:31.141Z,0.00
2018-09-01T00:34:31.652Z,0.00
2018-09-01T00:35:30.596Z,0.00
2018-09-01T00:36:22.997Z,0.00
2018-09-01T00:37:23.009Z,0.00
2018-09-01T00:38:22.981Z,0.00
2018-09-01T00:39:22.963Z,0.00
2018-09-01T00:40:23.019Z,0.00
2018-09-01T00:41:22.941Z,0.00
2018-09-01T00:42:22.933Z,0.00
2018-09-01T00:43:22.924Z,0.00
2018-09-01T00:44:22.910Z,0.00
2018-09-01T00:45:22.969Z,0.00
2018-09-01T00:46:23.565Z,0.00
2018-09-01T00:47:22.880Z,0.00
2018-09-01T00:48:22.869Z,0.00
2018-09-01T00:49:22.858Z,0.00
2018-09-01T00:50:23.565Z,0.00
2018-09-01T00:51:22.838Z,0.00
2018-09-01T00:52:22.827Z,0.00
2018-09-01T00:53:22.817Z,0.00
2018-09-01T00:54:22.808Z,0.00
2018-09-01T00:55:22.857Z,0.00
2018-09-01T00:56:23.570Z,0.00
2018-09-01T00:57:22.769Z,0.00
2018-09-01T00:58:22.761Z,0.00
2018-09-01T00:59:22.753Z,0.00
2018-09-01T01:00:22.812Z,0.00
2018-09-01T01:01:22.730Z,0.00
2018-09-01T01:02:22.719Z,0.00
2018-09-01T01:03:22.708Z,0.00
2018-09-01T01:04:22.703Z,0.00
2018-09-01T01:05:22.753Z,0.00
2018-09-01T01:06:22.681Z,0.00
2018-09-01T01:07:22.668Z,0.00
2018-09-01T01:08:22.653Z,0.00
2018-09-01T01:09:22.645Z,0.00
2018-09-01T01:10:22.704Z,0.00
2018-09-01T01:11:22.623Z,0.00
2018-09-01T01:12:22.614Z,0.00
2018-09-01T01:13:22.605Z,0.00
2018-09-01T01:14:22.592Z,0.00
2018-09-01T01:15:22.648Z,0.00
2018-09-01T01:16:22.572Z,0.00
2018-09-01T01:17:23.063Z,0.00
2018-09-01T01:18:22.551Z,0.00
2018-09-01T01:19:22.542Z,0.00
2018-09-01T01:20:22.592Z,0.00
2018-09-01T01:21:22.518Z,0.00
2018-09-01T01:22:22.507Z,0.00
2018-09-01T01:23:22.495Z,0.00
2018-09-01T01:24:22.484Z,0.00
2018-09-01T01:25:22.535Z,0.00
2018-09-01T01:26:22.462Z,0.00
2018-09-01T01:27:22.454Z,0.00
2018-09-01T01:28:22.448Z,0.00
2018-09-01T01:29:22.432Z,0.00
2018-09-01T01:30:22.485Z,0.00
2018-09-01T01:31:22.410Z,0.00
2018-09-01T01:32:22.399Z,0.00
2018-09-01T01:33:22.387Z,0.00
2018-09-01T01:34:22.377Z,0.00
2018-09-01T01:35:22.432Z,0.00
2018-09-01T01:36:22.358Z,0.00
2018-09-01T01:37:22.347Z,0.00
2018-09-01T01:38:23.062Z,0.00
2018-09-01T01:39:22.332Z,0.00
2018-09-01T01:40:22.379Z,0.00
2018-09-01T01:41:22.318Z,0.00
2018-09-01T01:42:22.294Z,0.00
2018-09-01T01:43:22.283Z,0.00
2018-09-01T01:44:22.274Z,0.00
2018-09-01T01:45:22.338Z,0.00
2018-09-01T01:46:22.250Z,0.00
2018-09-01T01:47:22.244Z,0.00
2018-09-01T01:48:22.234Z,0.00
2018-09-01T01:49:22.222Z,0.00
2018-09-01T01:50:22.206Z,0.00
2018-09-01T01:51:22.266Z,0.00
2018-09-01T01:52:22.187Z,0.00
2018-09-01T01:53:22.180Z,0.00
2018-09-01T01:54:22.167Z,0.00
2018-09-01T01:55:22.159Z,0.00
2018-09-01T01:56:22.212Z,0.00
2018-09-01T01:57:22.133Z,0.00
2018-09-01T01:58:22.123Z,0.00
2018-09-01T01:59:23.056Z,0.00
2018-09-01T02:00:22.098Z,0.00
2018-09-01T02:01:22.157Z,0.00
2018-09-01T02:02:22.081Z,0.00
2018-09-01T02:03:22.068Z,0.00
2018-09-01T02:04:22.059Z,0.00
2018-09-01T02:05:22.048Z,0.00
2018-09-01T02:06:22.104Z,0.00
2018-09-01T02:07:22.029Z,0.00
2018-09-01T02:08:22.015Z,0.00
2018-09-01T02:09:22.007Z,0.00
2018-09-01T02:10:21.998Z,0.00
2018-09-01T02:11:22.050Z,0.00
2018-09-01T02:12:21.973Z,0.00
2018-09-01T02:13:21.962Z,0.00
2018-09-01T02:14:21.954Z,0.00
2018-09-01T02:15:21.943Z,0.00
2018-09-01T02:16:21.995Z,0.00
2018-09-01T02:17:21.924Z,0.00
2018-09-01T02:18:21.912Z,0.00
2018-09-01T02:19:21.899Z,0.00
2018-09-01T02:20:22.553Z,0.00
2018-09-01T02:21:21.946Z,0.00
2018-09-01T02:22:21.866Z,0.00
2018-09-01T02:23:21.858Z,0.00
2018-09-01T02:24:21.846Z,0.00
2018-09-01T02:25:21.836Z,0.00
2018-09-01T02:26:21.890Z,0.00
2018-09-01T02:27:21.813Z,0.00
2018-09-01T02:28:21.808Z,0.00
2018-09-01T02:29:21.796Z,0.00
2018-09-01T02:30:21.786Z,0.00
2018-09-01T02:31:21.840Z,0.00
2018-09-01T02:32:21.764Z,0.00
2018-09-01T02:33:21.751Z,0.00
2018-09-01T02:34:21.746Z,0.00
2018-09-01T02:35:21.733Z,0.00
2018-09-01T02:36:21.787Z,0.00
2018-09-01T02:37:21.707Z,0.00
2018-09-01T02:38:21.697Z,0.00
2018-09-01T02:39:21.689Z,0.00
2018-09-01T02:40:21.677Z,0.00
2018-09-01T02:41:22.125Z,0.00
2018-09-01T02:42:21.660Z,0.00
2018-09-01T02:43:21.648Z,0.00
2018-09-01T02:44:21.633Z,0.00
2018-09-01T02:45:21.622Z,0.00
2018-09-01T02:46:21.680Z,0.00
2018-09-01T02:47:21.603Z,0.00
2018-09-01T02:48:21.601Z,0.00
2018-09-01T02:49:21.586Z,0.00
2018-09-01T02:50:21.575Z,0.00
2018-09-01T02:51:21.625Z,0.00
2018-09-01T02:52:21.553Z,0.00
2018-09-01T02:53:21.545Z,0.00
2018-09-01T02:54:21.533Z,0.00
2018-09-01T02:55:21.526Z,0.00
2018-09-01T02:56:21.578Z,0.00
2018-09-01T02:57:21.503Z,0.00
2018-09-01T02:58:21.489Z,0.00
2018-09-01T02:59:21.477Z,0.00
2018-09-01T03:00:21.464Z,0.00
2018-09-01T03:01:21.525Z,0.00
2018-09-01T03:02:22.047Z,0.00
2018-09-01T03:03:21.436Z,0.00
2018-09-01T03:04:21.426Z,0.00
2018-09-01T03:05:21.415Z,0.00
2018-09-01T03:06:21.475Z,0.00
2018-09-01T03:07:21.393Z,0.00
2018-09-01T03:08:21.381Z,0.00
2018-09-01T03:09:21.378Z,0.00
2018-09-01T03:10:21.364Z,0.00
2018-09-01T03:11:21.420Z,0.00
2018-09-01T03:12:21.340Z,0.00
2018-09-01T03:13:21.331Z,0.00
2018-09-01T03:14:21.318Z,0.00
2018-09-01T03:15:21.306Z,0.00
2018-09-01T03:16:21.365Z,0.00
2018-09-01T03:17:21.287Z,0.00
2018-09-01T03:18:21.281Z,0.00
2018-09-01T03:19:21.265Z,0.00
2018-09-01T03:20:21.257Z,0.00
2018-09-01T03:21:21.310Z,0.00
2018-09-01T03:22:21.235Z,0.00
2018-09-01T03:23:22.045Z,0.00
2018-09-01T03:24:21.215Z,0.00
2018-09-01T03:25:21.207Z,0.00
2018-09-01T03:26:21.268Z,0.00
2018-09-01T03:27:22.048Z,0.00
2018-09-01T03:28:21.173Z,0.00
2018-09-01T03:29:21.160Z,0.00
2018-09-01T03:30:21.156Z,0.00
2018-09-01T03:31:21.143Z,0.00
2018-09-01T03:32:21.620Z,0.00
2018-09-01T03:33:21.119Z,0.00
2018-09-01T03:34:21.109Z,0.00
2018-09-01T03:35:21.096Z,0.00
2018-09-01T03:36:21.088Z,0.00
2018-09-01T03:37:21.147Z,0.00
2018-09-01T03:38:21.063Z,0.00
2018-09-01T03:39:21.058Z,0.00
2018-09-01T03:40:21.050Z,0.00
2018-09-01T03:41:21.033Z,0.00
2018-09-01T03:42:21.091Z,0.00
2018-09-01T03:43:21.010Z,0.00
2018-09-01T03:44:21.540Z,0.00
2018-09-01T03:45:20.991Z,0.00
2018-09-01T03:46:20.986Z,0.00
2018-09-01T03:47:21.046Z,0.00
2018-09-01T03:48:20.962Z,0.00
2018-09-01T03:49:20.955Z,0.00
2018-09-01T03:50:20.941Z,0.00
2018-09-01T03:51:20.930Z,0.00
2018-09-01T03:52:20.983Z,0.00
2018-09-01T03:53:20.908Z,0.00
2018-09-01T03:54:20.958Z,0.00
2018-09-01T03:55:20.889Z,0.00
2018-09-01T03:56:20.875Z,0.00
2018-09-01T03:57:20.943Z,0.00
2018-09-01T03:58:20.854Z,0.00
2018-09-01T03:59:20.843Z,0.00
2018-09-01T04:00:20.834Z,0.00
2018-09-01T04:01:20.822Z,0.00
2018-09-01T04:02:20.883Z,0.00
2018-09-01T04:03:20.801Z,0.00
2018-09-01T04:04:20.792Z,0.00
2018-09-01T04:05:21.545Z,0.00
2018-09-01T04:06:20.776Z,0.00
2018-09-01T04:07:29.160Z,0.00
2018-09-01T04:08:28.945Z,0.00
2018-09-01T04:09:28.846Z,0.00
2018-09-01T04:10:20.728Z,0.00
2018-09-01T04:11:20.718Z,0.00
2018-09-01T04:12:20.772Z,0.00
2018-09-01T04:13:20.701Z,0.00
2018-09-01T04:14:20.687Z,0.00
2018-09-01T04:15:20.674Z,0.00
2018-09-01T04:16:20.662Z,0.00
2018-09-01T04:17:28.869Z,0.00
2018-09-01T04:18:29.206Z,0.00
2018-09-01T04:19:20.635Z,0.00
2018-09-01T04:20:20.631Z,0.00
2018-09-01T04:21:20.613Z,0.00
2018-09-01T04:22:20.665Z,0.00
2018-09-01T04:23:20.590Z,0.00
2018-09-01T04:24:20.577Z,0.00
2018-09-01T04:25:20.566Z,0.00
2018-09-01T04:26:20.558Z,0.00
2018-09-01T04:27:20.617Z,0.00
2018-09-01T04:28:21.214Z,0.00
2018-09-01T04:29:21.216Z,0.00
2018-09-01T04:30:20.519Z,0.00
2018-09-01T04:31:20.505Z,0.00
2018-09-01T04:32:20.568Z,0.00
2018-09-01T04:33:20.484Z,0.00
2018-09-01T04:34:20.499Z,0.00
2018-09-01T04:35:20.468Z,0.00
2018-09-01T04:36:20.450Z,0.00
2018-09-01T04:37:20.506Z,0.00
2018-09-01T04:38:20.436Z,0.00
2018-09-01T04:39:20.425Z,5.62
2018-09-01T04:40:20.414Z,5.62
2018-09-01T04:41:20.398Z,5.62
2018-09-01T04:42:20.471Z,5.62
2018-09-01T04:43:20.378Z,5.62
2018-09-01T04:44:20.381Z,5.62
2018-09-01T04:45:20.361Z,5.62
2018-09-01T04:46:20.348Z,11.25
2018-09-01T04:47:20.407Z,11.25
2018-09-01T04:48:20.328Z,11.25
2018-09-01T04:49:20.314Z,11.25
2018-09-01T04:50:21.208Z,11.25
2018-09-01T04:51:20.295Z,16.88
2018-09-01T04:52:20.352Z,16.88
2018-09-01T04:53:20.275Z,16.88
2018-09-01T04:54:20.265Z,22.50
2018-09-01T04:55:20.253Z,22.50
2018-09-01T04:56:20.243Z,22.50
2018-09-01T04:57:20.301Z,22.50
2018-09-01T04:58:20.223Z,28.12
2018-09-01T04:59:20.210Z,28.12
2018-09-01T05:00:20.207Z,28.12
2018-09-01T05:01:20.256Z,33.75
2018-09-01T05:02:20.243Z,33.75
2018-09-01T05:03:20.165Z,33.75
2018-09-01T05:04:20.160Z,39.38
2018-09-01T05:05:20.146Z,39.38
2018-09-01T05:06:20.137Z,39.38
2018-09-01T05:07:20.193Z,45.00
2018-09-01T05:08:20.116Z,45.00
2018-09-01T05:09:20.102Z,45.00
2018-09-01T05:10:20.094Z,50.62
2018-09-01T05:11:20.706Z,50.62
2018-09-01T05:12:20.072Z,50.62
2018-09-01T05:13:20.126Z,56.25
2018-09-01T05:14:20.052Z,56.25
2018-09-01T05:15:20.041Z,61.88
2018-09-01T05:16:20.032Z,61.88
2018-09-01T05:17:20.022Z,67.50
2018-09-01T05:18:20.076Z,67.50
2018-09-01T05:19:20.000Z,67.50
2018-09-01T05:20:19.991Z,73.12
2018-09-01T05:21:19.985Z,73.12
2018-09-01T05:22:19.967Z,78.75
2018-09-01T05:23:20.024Z,78.75
2018-09-01T05:24:19.957Z,84.38
2018-09-01T05:25:19.933Z,84.38
2018-09-01T05:26:19.925Z,90.00
2018-09-01T05:27:19.911Z,90.00
2018-09-01T05:28:19.971Z,90.00
2018-09-01T05:29:19.894Z,95.62
2018-09-01T05:30:19.883Z,95.62
2018-09-01T05:31:19.872Z,101.25
2018-09-01T05:32:20.704Z,101.25
2018-09-01T05:33:19.921Z,106.88
2018-09-01T05:34:19.836Z,106.88
2018-09-01T05:35:19.825Z,112.50
2018-09-01T05:36:19.821Z,112.50
2018-09-01T05:37:19.805Z,112.50
2018-09-01T05:38:19.866Z,118.12
2018-09-01T05:39:19.788Z,118.12
2018-09-01T05:40:19.775Z,123.75
2018-09-01T05:41:19.766Z,123.75
2018-09-01T05:42:19.758Z,123.75
2018-09-01T05:43:19.811Z,123.75
2018-09-01T05:44:19.733Z,129.38
2018-09-01T05:45:19.722Z,129.38
2018-09-01T05:46:19.714Z,135.00
2018-09-01T05:47:19.700Z,135.00
2018-09-01T05:48:19.758Z,140.62
2018-09-01T05:49:19.681Z,140.62
2018-09-01T05:50:19.670Z,140.62
2018-09-01T05:51:19.668Z,146.25
2018-09-01T05:52:19.660Z,146.25
2018-09-01T05:53:19.782Z,151.88
2018-09-01T05:54:19.631Z,151.88
2018-09-01T05:55:19.617Z,157.50
2018-09-01T05:56:19.606Z,157.50
2018-09-01T05:57:19.595Z,163.12
2018-09-01T05:58:19.772Z,163.12
2018-09-01T05:59:19.576Z,168.75
2018-09-01T06:00:19.575Z,168.75
2018-09-01T06:01:19.567Z,174.38
2018-09-01T06:02:19.542Z,174.38
2018-09-01T06:03:19.600Z,180.00
2018-09-01T06:04:19.523Z,180.00
2018-09-01T06:05:19.515Z,185.62
2018-09-01T06:06:19.601Z,185.62
2018-09-01T06:07:19.490Z,191.25
2018-09-01T06:08:19.545Z,191.25
2018-09-01T06:09:19.468Z,196.88
2018-09-01T06:10:19.461Z,196.88
2018-09-01T06:11:19.454Z,202.50
2018-09-01T06:12:19.434Z,202.50
2018-09-01T06:13:19.493Z,208.12
2018-09-01T06:14:20.197Z,208.12
2018-09-01T06:15:19.404Z,213.75
2018-09-01T06:16:19.402Z,213.75
2018-09-01T06:17:19.388Z,219.38
2018-09-01T06:18:19.440Z,219.38
2018-09-01T06:19:19.458Z,225.00
2018-09-01T06:20:19.357Z,225.00
2018-09-01T06:21:19.344Z,230.62
2018-09-01T06:22:19.339Z,230.62
2018-09-01T06:23:19.388Z,236.25
2018-09-01T06:24:19.311Z,236.25
2018-09-01T06:25:19.302Z,241.88
2018-09-01T06:26:19.294Z,241.88
2018-09-01T06:27:19.280Z,247.50
2018-09-01T06:28:19.332Z,247.50
2018-09-01T06:29:19.254Z,253.12
2018-09-01T06:30:19.332Z,253.12
2018-09-01T06:31:19.233Z,258.75
2018-09-01T06:32:19.224Z,258.75
2018-09-01T06:33:19.282Z,264.38
2018-09-01T06:34:19.224Z,264.38
2018-09-01T06:35:19.692Z,264.38
2018-09-01T06:36:19.185Z,264.38
2018-09-01T06:37:19.169Z,264.38
2018-09-01T06:38:19.234Z,270.00
2018-09-01T06:39:19.150Z,270.00
2018-09-01T06:40:19.141Z,275.62
2018-09-01T06:41:19.133Z,275.62
2018-09-01T06:42:19.120Z,281.25
2018-09-01T06:43:19.178Z,286.88
2018-09-01T06:44:19.097Z,286.88
2018-09-01T06:45:19.089Z,292.50
2018-09-01T06:46:19.078Z,298.12
2018-09-01T06:47:19.064Z,309.38
2018-09-01T06:48:19.120Z,326.25
2018-09-01T06:49:19.693Z,348.75
2018-09-01T06:50:19.034Z,371.25
2018-09-01T06:51:19.039Z,489.38
2018-09-01T06:52:19.022Z,804.38
2018-09-01T06:53:19.072Z,922.50
2018-09-01T06:54:18.993Z,911.25
2018-09-01T06:55:18.984Z,916.88
2018-09-01T06:56:19.267Z,945.00
2018-09-01T06:57:18.959Z,973.12
2018-09-01T06:58:19.017Z,1018.12
2018-09-01T06:59:19.005Z,1029.38
2018-09-01T07:00:18.926Z,1040.62
2018-09-01T07:01:18.915Z,1051.88
2018-09-01T07:02:18.906Z,1085.62
2018-09-01T07:03:18.893Z,1085.62
2018-09-01T07:04:18.950Z,1068.75
2018-09-01T07:05:18.876Z,1080.00
2018-09-01T07:06:18.865Z,1125.00
2018-09-01T07:07:18.854Z,1186.88
2018-09-01T07:08:18.840Z,1198.12
2018-09-01T07:09:18.895Z,1209.38
2018-09-01T07:10:18.823Z,1215.00
2018-09-01T07:11:18.810Z,1220.62
2018-09-01T07:12:18.799Z,1254.38
2018-09-01T07:13:18.790Z,1248.75
2018-09-01T07:14:18.843Z,1248.75
2018-09-01T07:15:18.766Z,1288.12
2018-09-01T07:16:18.758Z,1316.25
2018-09-01T07:17:19.690Z,1355.62
2018-09-01T07:18:18.735Z,1350.00
2018-09-01T07:19:18.790Z,1355.62
2018-09-01T07:20:18.716Z,1400.62
2018-09-01T07:21:18.702Z,1400.62
2018-09-01T07:22:18.691Z,1406.25
2018-09-01T07:23:18.683Z,1406.25
2018-09-01T07:24:18.741Z,1400.62
2018-09-01T07:25:18.661Z,1428.75
2018-09-01T07:26:18.652Z,1440.00
2018-09-01T07:27:18.639Z,1440.00
2018-09-01T07:28:18.631Z,1434.38
2018-09-01T07:29:18.689Z,1485.00
2018-09-01T07:30:18.685Z,1496.25
2018-09-01T07:31:18.995Z,1530.00
2018-09-01T07:32:18.597Z,1541.25
2018-09-01T07:33:18.578Z,1541.25
2018-09-01T07:34:18.636Z,1569.38
2018-09-01T07:35:18.558Z,1558.12
2018-09-01T07:36:18.548Z,1490.62
2018-09-01T07:37:18.536Z,1518.75
2018-09-01T07:38:19.193Z,1546.88
2018-09-01T07:39:18.583Z,1569.38
2018-09-01T07:40:18.506Z,1586.25
2018-09-01T07:41:18.498Z,1653.75
2018-09-01T07:42:18.513Z,1648.12
2018-09-01T07:43:18.486Z,1620.00
2018-09-01T07:44:18.528Z,1631.25
2018-09-01T07:45:18.466Z,1681.88
2018-09-01T07:46:18.445Z,1715.62
2018-09-01T07:47:18.434Z,1766.25
2018-09-01T07:48:18.420Z,1766.25
2018-09-01T07:49:18.480Z,1805.62
2018-09-01T07:50:18.401Z,1794.38
2018-09-01T07:51:18.389Z,1783.12
2018-09-01T07:52:18.384Z,1822.50
2018-09-01T07:53:18.373Z,1805.62
2018-09-01T07:54:18.425Z,1856.25
2018-09-01T07:55:18.350Z,1856.25
2018-09-01T07:56:18.416Z,1839.38
2018-09-01T07:57:25.873Z,1845.00
2018-09-01T07:58:18.317Z,1873.12
2018-09-01T07:59:18.804Z,1929.38
2018-09-01T08:00:18.353Z,1968.75
2018-09-01T08:01:18.290Z,2053.12
2018-09-01T08:02:18.279Z,2070.00
2018-09-01T08:03:18.271Z,2053.12
2018-09-01T08:04:18.349Z,2002.50
2018-09-01T08:05:18.247Z,2030.62
2018-09-01T08:06:18.237Z,2064.38
2018-09-01T08:07:18.280Z,2103.75
2018-09-01T08:08:18.218Z,2086.88
2018-09-01T08:09:18.278Z,2120.62
2018-09-01T08:10:18.200Z,2143.12
2018-09-01T08:11:18.190Z,2154.38
2018-09-01T08:12:18.176Z,2126.25
2018-09-01T08:13:18.169Z,2171.25
2018-09-01T08:14:18.286Z,2244.38
2018-09-01T08:15:18.152Z,2176.88
2018-09-01T08:16:18.137Z,2148.75
2018-09-01T08:17:18.144Z,2266.88
2018-09-01T08:18:25.652Z,2255.62
2018-09-01T08:19:18.172Z,2238.75
2018-09-01T08:20:18.096Z,2227.50
2018-09-01T08:21:18.087Z,2244.38
2018-09-01T08:22:18.078Z,2278.12
2018-09-01T08:23:18.070Z,2289.38
2018-09-01T08:24:18.125Z,2317.50
2018-09-01T08:25:18.054Z,2340.00
2018-09-01T08:26:18.038Z,2317.50
2018-09-01T08:27:18.029Z,2295.00
2018-09-01T08:28:18.018Z,2221.88
2018-09-01T08:29:18.076Z,2362.50
2018-09-01T08:30:18.006Z,2396.25
2018-09-01T08:31:17.989Z,2385.00
2018-09-01T08:32:17.982Z,2401.88
2018-09-01T08:33:17.976Z,2390.62
2018-09-01T08:34:18.023Z,2385.00
2018-09-01T08:35:17.948Z,2441.25
2018-09-01T08:36:17.945Z,2458.12
2018-09-01T08:37:17.931Z,2497.50
2018-09-01T08:38:17.928Z,2520.00
2018-09-01T08:39:18.346Z,2536.88
2018-09-01T08:40:18.001Z,2458.12
2018-09-01T08:41:17.898Z,2413.12
2018-09-01T08:42:17.884Z,2441.25
2018-09-01T08:43:17.876Z,2441.25
2018-09-01T08:44:17.977Z,2520.00
2018-09-01T08:45:17.877Z,2576.25
2018-09-01T08:46:17.851Z,2553.75
2018-09-01T08:47:17.836Z,2581.88
2018-09-01T08:48:17.828Z,2531.25
2018-09-01T08:49:17.883Z,2570.62
2018-09-01T08:50:17.809Z,2576.25
2018-09-01T08:51:17.800Z,2553.75
2018-09-01T08:52:17.793Z,2565.00
2018-09-01T08:53:17.789Z,2598.75
2018-09-01T08:54:17.842Z,2649.38
2018-09-01T08:55:17.762Z,2626.88
2018-09-01T08:56:17.755Z,2615.62
2018-09-01T08:57:17.745Z,2700.00
2018-09-01T08:58:17.737Z,2677.50
2018-09-01T08:59:17.731Z,2626.88
2018-09-01T09:00:17.853Z,2733.75
2018-09-01T09:01:17.706Z,2880.00
2018-09-01T09:02:17.700Z,2868.75
2018-09-01T09:03:17.687Z,2773.12
2018-09-01T09:04:17.684Z,2745.00
2018-09-01T09:05:17.731Z,2790.00
2018-09-01T09:06:17.659Z,2784.38
2018-09-01T09:07:17.653Z,2857.50
2018-09-01T09:08:17.642Z,2880.00
2018-09-01T09:09:17.639Z,2823.75
2018-09-01T09:10:17.683Z,2835.00
2018-09-01T09:11:17.614Z,2868.75
2018-09-01T09:12:17.608Z,2885.62
2018-09-01T09:13:17.598Z,2874.38
2018-09-01T09:14:17.592Z,2835.00
2018-09-01T09:15:17.645Z,2874.38
2018-09-01T09:16:17.575Z,2919.38
2018-09-01T09:17:17.562Z,2925.00
2018-09-01T09:18:17.556Z,2947.50
2018-09-01T09:19:17.547Z,2891.25
2018-09-01T09:20:17.597Z,3009.38
2018-09-01T09:21:18.272Z,3037.50
2018-09-01T09:22:17.517Z,2851.88
2018-09-01T09:23:17.509Z,2823.75
2018-09-01T09:24:17.497Z,2823.75
2018-09-01T09:25:17.556Z,2812.50
2018-09-01T09:26:17.480Z,2863.12
2018-09-01T09:27:17.475Z,2902.50
2018-09-01T09:28:17.463Z,2953.12
2018-09-01T09:29:17.458Z,2975.62
2018-09-01T09:30:17.508Z,3009.38
2018-09-01T09:31:17.435Z,2925.00
2018-09-01T09:32:17.433Z,2913.75
2018-09-01T09:33:17.425Z,3031.88
2018-09-01T09:34:17.413Z,3031.88
2018-09-01T09:35:17.465Z,2812.50
2018-09-01T09:36:17.394Z,2733.75
2018-09-01T09:37:17.385Z,2936.25
2018-09-01T09:38:17.377Z,3009.38
2018-09-01T09:39:17.367Z,2806.88
2018-09-01T09:40:17.422Z,2683.12
2018-09-01T09:41:17.355Z,2880.00
2018-09-01T09:42:18.282Z,3026.25
2018-09-01T09:43:17.338Z,3076.88
2018-09-01T09:44:17.324Z,2992.50
2018-09-01T09:45:17.382Z,2953.12
2018-09-01T09:46:17.304Z,3009.38
2018-09-01T09:47:17.299Z,3093.75
2018-09-01T09:48:17.293Z,3121.88
2018-09-01T09:49:17.285Z,3037.50
2018-09-01T09:50:17.334Z,2936.25
2018-09-01T09:51:17.269Z,2992.50
2018-09-01T09:52:17.257Z,3015.00
2018-09-01T09:53:17.248Z,3121.88
2018-09-01T09:54:17.240Z,3093.75
2018-09-01T09:55:17.298Z,3105.00
2018-09-01T09:56:17.229Z,3166.88
2018-09-01T09:57:17.217Z,3172.50
2018-09-01T09:58:17.264Z,3211.88
2018-09-01T09:59:17.198Z,3200.62
2018-09-01T10:00:17.256Z,3172.50
2018-09-01T10:01:17.184Z,3206.25
2018-09-01T10:02:17.175Z,3195.00
2018-09-01T10:03:17.774Z,3217.50
2018-09-01T10:04:17.157Z,3330.00
2018-09-01T10:05:17.219Z,3240.00
2018-09-01T10:06:17.139Z,3043.12
2018-09-01T10:07:17.139Z,3060.00
2018-09-01T10:08:17.128Z,3161.25
2018-09-01T10:09:17.125Z,3166.88
2018-09-01T10:10:17.171Z,3189.38
2018-09-01T10:11:17.100Z,3290.62
2018-09-01T10:12:17.096Z,3324.38
2018-09-01T10:13:17.086Z,3195.00
2018-09-01T10:14:17.079Z,3161.25
2018-09-01T10:15:17.135Z,3161.25
2018-09-01T10:16:17.064Z,3048.75
2018-09-01T10:17:17.058Z,2902.50
2018-09-01T10:18:17.048Z,2733.75
2018-09-01T10:19:17.036Z,2660.62
2018-09-01T10:20:17.192Z,2739.38
2018-09-01T10:21:17.026Z,2880.00
2018-09-01T10:22:17.016Z,3144.38
2018-09-01T10:23:17.008Z,1485.00
2018-09-01T10:24:17.773Z,3386.25
2018-09-01T10:25:16.993Z,3346.88
2018-09-01T10:26:17.043Z,3408.75
2018-09-01T10:27:16.974Z,3324.38
2018-09-01T10:28:16.968Z,3273.75
2018-09-01T10:29:16.957Z,3391.88
2018-09-01T10:30:16.952Z,776.25
2018-09-01T10:31:17.001Z,3262.50
2018-09-01T10:32:16.937Z,731.25
2018-09-01T10:33:16.931Z,669.38
2018-09-01T10:34:16.923Z,691.88
2018-09-01T10:35:16.917Z,3307.50
2018-09-01T10:36:16.970Z,3223.12
2018-09-01T10:37:16.895Z,3324.38
2018-09-01T10:38:16.893Z,3414.38
2018-09-01T10:39:16.875Z,3318.75
2018-09-01T10:40:16.867Z,3256.88
2018-09-01T10:41:16.922Z,3397.50
2018-09-01T10:42:16.855Z,3391.88
2018-09-01T10:43:16.843Z,3504.38
2018-09-01T10:44:16.834Z,3577.50
2018-09-01T10:45:19.775Z,3532.50
2018-09-01T10:46:16.883Z,3436.88
2018-09-01T10:47:16.808Z,3453.75
2018-09-01T10:48:16.805Z,3560.62
2018-09-01T10:49:16.799Z,3493.12
2018-09-01T10:50:16.786Z,3476.25
2018-09-01T10:51:16.843Z,3510.00
2018-09-01T10:52:16.768Z,3363.75
2018-09-01T10:53:16.774Z,3470.62
2018-09-01T10:54:16.755Z,3380.62
2018-09-01T10:55:16.745Z,3397.50
2018-09-01T10:56:16.800Z,3526.88
2018-09-01T10:57:16.729Z,3543.75
2018-09-01T10:58:16.726Z,3526.88
2018-09-01T10:59:16.784Z,3560.62
2018-09-01T11:00:16.707Z,3453.75
2018-09-01T11:01:16.762Z,3324.38
2018-09-01T11:02:16.699Z,3375.00
2018-09-01T11:03:16.696Z,3493.12
2018-09-01T11:04:16.681Z,3566.25
2018-09-01T11:05:16.673Z,3616.88
2018-09-01T11:06:16.842Z,3639.38
2018-09-01T11:07:16.656Z,3611.25
2018-09-01T11:08:16.656Z,3605.62
2018-09-01T11:09:16.639Z,3566.25
2018-09-01T11:10:16.634Z,3650.62
2018-09-01T11:11:16.688Z,3673.12
2018-09-01T11:12:16.624Z,3526.88
2018-09-01T11:13:16.613Z,3397.50
2018-09-01T11:14:16.602Z,3453.75
2018-09-01T11:15:16.597Z,3543.75
2018-09-01T11:16:16.665Z,3650.62
2018-09-01T11:17:16.585Z,3571.88
2018-09-01T11:18:16.576Z,3549.38
2018-09-01T11:19:16.574Z,3684.38
2018-09-01T11:20:16.627Z,3667.50
2018-09-01T11:21:16.612Z,3622.50
2018-09-01T11:22:16.546Z,3571.88
2018-09-01T11:23:16.548Z,3583.12
2018-09-01T11:24:16.533Z,3346.88
2018-09-01T11:25:16.522Z,3785.62
2018-09-01T11:26:16.573Z,3706.88
2018-09-01T11:27:17.264Z,3735.00
2018-09-01T11:28:16.497Z,888.75
2018-09-01T11:29:16.489Z,3566.25
2018-09-01T11:30:16.488Z,3622.50
2018-09-01T11:31:16.549Z,3690.00
2018-09-01T11:32:16.469Z,3493.12
2018-09-01T11:33:16.471Z,2120.62
2018-09-01T11:34:16.456Z,3712.50
2018-09-01T11:35:24.561Z,3639.38
2018-09-01T11:36:24.647Z,1648.12
2018-09-01T11:37:24.576Z,787.50
2018-09-01T11:38:16.422Z,787.50
2018-09-01T11:39:16.415Z,1513.12
2018-09-01T11:40:16.470Z,3588.75
2018-09-01T11:41:16.459Z,3616.88
2018-09-01T11:42:16.410Z,3493.12
2018-09-01T11:43:16.429Z,3414.38
2018-09-01T11:44:16.377Z,3408.75
2018-09-01T11:45:16.366Z,3510.00
2018-09-01T11:46:16.421Z,3498.75
2018-09-01T11:47:24.435Z,3515.62
2018-09-01T11:48:16.343Z,3526.88
2018-09-01T11:49:16.337Z,3431.25
2018-09-01T11:50:16.332Z,3397.50
2018-09-01T11:51:16.387Z,3386.25
2018-09-01T11:52:16.325Z,3448.12
2018-09-01T11:53:16.489Z,3420.00
2018-09-01T11:54:16.308Z,3577.50
2018-09-01T11:55:16.293Z,3605.62
2018-09-01T11:56:16.493Z,3628.12
2018-09-01T11:57:16.279Z,3628.12
2018-09-01T11:58:16.270Z,3498.75
2018-09-01T11:59:16.265Z,3645.00
2018-09-01T12:00:16.254Z,3718.12
2018-09-01T12:01:16.323Z,3706.88
2018-09-01T12:02:16.307Z,3735.00
2018-09-01T12:03:16.231Z,1535.62
2018-09-01T12:04:16.228Z,2295.00
2018-09-01T12:05:16.217Z,3667.50
2018-09-01T12:06:16.208Z,3487.50
2018-09-01T12:07:16.266Z,3470.62
2018-09-01T12:08:16.197Z,3470.62
2018-09-01T12:09:16.198Z,3397.50
2018-09-01T12:10:16.193Z,3431.25
2018-09-01T12:11:16.172Z,3453.75
2018-09-01T12:12:16.224Z,3380.62
2018-09-01T12:13:16.155Z,3420.00
2018-09-01T12:14:16.147Z,3420.00
2018-09-01T12:15:16.143Z,3296.25
2018-09-01T12:16:16.135Z,3138.75
2018-09-01T12:17:16.485Z,3335.62
2018-09-01T12:18:16.119Z,3459.38
2018-09-01T12:19:16.113Z,3639.38
2018-09-01T12:20:16.105Z,3751.88
2018-09-01T12:21:16.096Z,3515.62
2018-09-01T12:22:16.209Z,3442.50
2018-09-01T12:23:16.082Z,3566.25
2018-09-01T12:24:16.079Z,1141.88
2018-09-01T12:25:16.066Z,1299.38
2018-09-01T12:26:16.062Z,3611.25
2018-09-01T12:27:16.115Z,2868.75
2018-09-01T12:28:16.101Z,3403.12
2018-09-01T12:29:16.043Z,3481.88
2018-09-01T12:30:16.031Z,3543.75
2018-09-01T12:31:16.030Z,3380.62
2018-09-01T12:32:16.073Z,3268.12
2018-09-01T12:33:16.009Z,3369.38
2018-09-01T12:34:16.000Z,3330.00
2018-09-01T12:35:15.995Z,3228.75
2018-09-01T12:36:16.044Z,3346.88
2018-09-01T12:37:16.039Z,3195.00